createdAt,value
2022-10-21T00:00:09.733Z,15.43
2022-10-21T00:01:14.611Z,14.63
2022-10-21T00:02:15.916Z,14.37
2022-10-21T00:03:17.652Z,14.23
2022-10-21T00:04:18.969Z,14.60
2022-10-21T00:05:20.313Z,13.67
2022-10-21T00:06:21.614Z,14.00
2022-10-21T00:07:22.881Z,14.47
2022-10-21T00:08:24.572Z,14.90
2022-10-21T00:09:25.876Z,15.40
2022-10-21T00:10:27.185Z,14.63
2022-10-21T00:11:28.537Z,15.00
2022-10-21T00:12:30.017Z,15.43
2022-10-21T00:13:32.206Z,14.57
2022-10-21T00:14:33.497Z,15.20
2022-10-21T00:15:35.061Z,14.87
2022-10-21T00:16:36.456Z,14.73
2022-10-21T00:17:38.688Z,14.23
2022-10-21T00:18:41.083Z,14.70
2022-10-21T00:19:42.768Z,15.97
2022-10-21T00:20:44.084Z,14.90
2022-10-21T00:21:45.416Z,15.10
2022-10-21T00:22:47.069Z,14.40
2022-10-21T00:23:49.809Z,14.77
2022-10-21T00:24:51.122Z,15.63
2022-10-21T00:25:58.704Z,15.03
2022-10-21T00:27:00.011Z,15.30
2022-10-21T00:28:01.321Z,15.03
2022-10-21T00:29:02.652Z,13.80
2022-10-21T00:30:05.185Z,14.90
2022-10-21T00:31:10.351Z,14.90
2022-10-21T00:32:11.665Z,15.73
2022-10-21T00:33:13.413Z,15.10
2022-10-21T00:34:14.733Z,15.90
2022-10-21T00:35:16.061Z,17.10
2022-10-21T00:36:17.440Z,16.57
2022-10-21T00:37:18.803Z,16.20
2022-10-21T00:39:26.577Z,15.47
2022-10-21T00:40:27.873Z,15.40
2022-10-21T00:41:29.291Z,15.83
2022-10-21T00:42:32.639Z,16.37
2022-10-21T00:43:52.678Z,15.47
2022-10-21T00:45:06.039Z,16.20
2022-10-21T00:46:07.728Z,16.27
2022-10-21T00:47:17.761Z,16.13
2022-10-21T00:48:23.094Z,16.27
2022-10-21T00:49:29.401Z,15.97
2022-10-21T00:50:43.088Z,16.80
2022-10-21T00:51:45.599Z,16.67
2022-10-21T00:52:46.947Z,16.63
2022-10-21T00:53:49.456Z,16.50
2022-10-21T00:54:52.852Z,16.47
2022-10-21T00:55:57.225Z,15.77
2022-10-21T00:56:58.888Z,15.63
2022-10-21T00:58:01.368Z,16.10
2022-10-21T00:59:03.768Z,16.03
2022-10-21T01:00:06.043Z,15.80
2022-10-21T01:01:08.185Z,15.23
2022-10-21T01:02:09.548Z,15.67
2022-10-21T01:03:10.899Z,15.90
2022-10-21T01:04:12.305Z,16.23
2022-10-21T01:05:13.905Z,15.27
2022-10-21T01:06:15.559Z,15.27
2022-10-21T01:07:16.908Z,15.20
2022-10-21T01:08:18.951Z,14.77
2022-10-21T01:09:21.074Z,15.07
2022-10-21T01:10:22.392Z,14.80
2022-10-21T01:11:24.486Z,14.77
2022-10-21T01:12:33.739Z,16.00
2022-10-21T01:13:38.090Z,15.23
2022-10-21T01:16:18.165Z,15.83
2022-10-21T01:17:43.665Z,15.03
2022-10-21T01:18:51.560Z,15.30
2022-10-21T01:19:52.866Z,15.67
2022-10-21T01:21:00.263Z,14.97
2022-10-21T01:22:07.693Z,15.97
2022-10-21T01:23:21.234Z,14.67
2022-10-21T01:24:22.519Z,14.23
2022-10-21T01:25:43.472Z,13.70
2022-10-21T01:26:50.660Z,14.17
2022-10-21T01:28:01.896Z,14.53
2022-10-21T01:29:05.962Z,13.73
2022-10-21T01:30:16.251Z,14.43
2022-10-21T01:31:37.738Z,13.83
2022-10-21T01:32:45.025Z,14.27
2022-10-21T01:34:09.340Z,14.57
2022-10-21T01:35:21.759Z,14.00
2022-10-21T01:36:27.284Z,14.80
2022-10-21T01:37:31.345Z,14.33
2022-10-21T01:38:47.915Z,13.77
2022-10-21T01:39:54.732Z,14.50
2022-10-21T01:41:04.156Z,13.80
2022-10-21T01:42:14.820Z,13.50
2022-10-21T01:43:26.197Z,14.50
2022-10-21T01:44:30.231Z,13.87
2022-10-21T01:45:34.790Z,13.97
2022-10-21T01:46:48.886Z,15.20
2022-10-21T01:47:51.329Z,13.93
2022-10-21T01:48:54.788Z,14.27
2022-10-21T01:49:59.617Z,14.97
2022-10-21T01:51:02.154Z,14.93
2022-10-21T01:52:03.988Z,13.83
2022-10-21T01:53:07.852Z,14.07
2022-10-21T01:54:12.886Z,14.37
2022-10-21T01:55:17.704Z,14.60
2022-10-21T01:56:20.117Z,14.63
2022-10-21T01:57:22.653Z,14.20
2022-10-21T01:58:25.376Z,14.23
2022-10-21T01:59:27.876Z,14.57
2022-10-21T02:00:29.952Z,14.27
2022-10-21T02:01:32.444Z,14.53
2022-10-21T02:02:35.793Z,14.67
2022-10-21T02:03:39.047Z,14.43
2022-10-21T02:04:41.799Z,14.30
2022-10-21T02:05:43.178Z,15.10
2022-10-21T02:06:44.627Z,14.63
2022-10-21T02:07:46.062Z,14.33
2022-10-21T02:08:47.542Z,14.70
2022-10-21T02:09:48.895Z,14.43
2022-10-21T02:10:51.493Z,14.77
2022-10-21T02:11:55.550Z,14.43
2022-10-21T02:12:58.580Z,14.80
2022-10-21T02:14:06.226Z,15.30
2022-10-21T02:15:08.872Z,14.33
2022-10-21T02:16:13.136Z,14.07
2022-10-21T02:17:16.201Z,15.07
2022-10-21T02:18:19.524Z,14.67
2022-10-21T02:19:21.074Z,15.00
2022-10-21T02:20:24.192Z,15.03
2022-10-21T02:21:26.161Z,14.90
2022-10-21T02:22:28.056Z,15.37
2022-10-21T02:23:38.888Z,15.33
2022-10-21T02:24:43.007Z,14.80
2022-10-21T02:25:47.733Z,14.40
2022-10-21T02:26:49.146Z,16.03
2022-10-21T02:27:52.817Z,14.57
2022-10-21T02:28:55.469Z,14.13
2022-10-21T02:29:58.669Z,13.97
2022-10-21T02:31:05.845Z,16.27
2022-10-21T02:32:22.692Z,14.47
2022-10-21T02:33:29.892Z,14.97
2022-10-21T02:34:45.596Z,15.07
2022-10-21T02:35:46.906Z,14.27
2022-10-21T02:36:58.446Z,14.67
2022-10-21T02:38:26.194Z,14.97
2022-10-21T02:39:32.326Z,14.37
2022-10-21T02:40:36.855Z,14.10
2022-10-21T02:41:38.779Z,14.83
2022-10-21T02:42:43.225Z,15.10
2022-10-21T02:43:57.006Z,15.13
2022-10-21T02:44:59.795Z,15.47
2022-10-21T02:46:05.345Z,15.17
2022-10-21T02:47:06.699Z,14.23
2022-10-21T02:48:08.057Z,13.97
2022-10-21T02:49:09.701Z,14.17
2022-10-21T02:50:11.058Z,15.03
2022-10-21T02:51:12.723Z,14.10
2022-10-21T02:52:14.076Z,14.87
2022-10-21T02:53:15.410Z,14.43
2022-10-21T02:54:16.748Z,14.23
2022-10-21T02:55:18.055Z,14.50
2022-10-21T02:56:19.460Z,14.27
2022-10-21T02:57:20.835Z,14.57
2022-10-21T02:58:22.211Z,13.77
2022-10-21T02:59:23.616Z,13.93
2022-10-21T03:00:25.554Z,13.90
2022-10-21T03:01:28.221Z,13.47
2022-10-21T03:02:29.564Z,14.50
2022-10-21T03:03:30.921Z,14.23
2022-10-21T03:04:32.250Z,13.47
2022-10-21T03:05:33.606Z,13.37
2022-10-21T03:06:35.044Z,13.20
2022-10-21T03:07:36.658Z,13.87
2022-10-21T03:08:38.357Z,13.87
2022-10-21T03:09:39.786Z,13.90
2022-10-21T03:10:41.142Z,13.73
2022-10-21T03:11:42.404Z,13.47
2022-10-21T03:12:43.761Z,13.07
2022-10-21T03:13:45.095Z,13.67
2022-10-21T03:14:46.416Z,14.00
2022-10-21T03:15:51.352Z,14.07
2022-10-21T03:16:52.701Z,13.43
2022-10-21T03:17:54.388Z,14.03
2022-10-21T03:18:55.687Z,13.10
2022-10-21T03:19:56.991Z,13.50
2022-10-21T03:20:58.380Z,13.23
2022-10-21T03:21:59.697Z,13.97
2022-10-21T03:23:01.023Z,13.83
2022-10-21T03:24:03.792Z,13.80
2022-10-21T03:25:07.274Z,14.13
2022-10-21T03:26:08.647Z,13.80
2022-10-21T03:27:09.951Z,13.60
2022-10-21T03:28:11.299Z,13.47
2022-10-21T03:29:12.738Z,14.37
2022-10-21T03:30:14.035Z,13.60
2022-10-21T03:31:15.365Z,13.33
2022-10-21T03:32:16.730Z,13.60
2022-10-21T03:33:18.035Z,13.17
2022-10-21T03:34:19.396Z,13.60
2022-10-21T03:35:20.730Z,12.77
2022-10-21T03:36:22.059Z,13.97
2022-10-21T03:37:23.441Z,14.23
2022-10-21T03:38:24.765Z,14.13
2022-10-21T03:39:26.045Z,14.17
2022-10-21T03:40:30.507Z,13.20
2022-10-21T03:41:31.828Z,14.13
2022-10-21T03:42:33.131Z,14.47
2022-10-21T03:43:34.444Z,13.43
2022-10-21T03:44:35.742Z,13.40
2022-10-21T03:45:37.537Z,13.67
2022-10-21T03:46:39.071Z,12.90
2022-10-21T03:47:40.843Z,13.30
2022-10-21T03:48:42.120Z,14.00
2022-10-21T03:49:43.391Z,13.10
2022-10-21T03:50:44.731Z,13.73
2022-10-21T03:51:46.013Z,13.83
2022-10-21T03:52:47.373Z,13.53
2022-10-21T03:53:48.670Z,13.63
2022-10-21T03:54:49.974Z,14.33
2022-10-21T03:55:55.729Z,13.53
2022-10-21T03:56:58.041Z,13.33
2022-10-21T03:57:59.471Z,12.27
2022-10-21T03:59:00.815Z,13.77
2022-10-21T04:00:02.410Z,12.80
2022-10-21T04:01:14.123Z,12.90
2022-10-21T04:02:15.665Z,13.57
2022-10-21T04:03:16.945Z,12.93
2022-10-21T04:04:18.371Z,12.93
2022-10-21T04:05:19.808Z,13.07
2022-10-21T04:06:21.128Z,12.97
2022-10-21T04:07:22.457Z,12.70
2022-10-21T04:08:23.797Z,13.30
2022-10-21T04:09:25.173Z,12.83
2022-10-21T04:10:26.678Z,12.70
2022-10-21T04:11:27.977Z,13.57
2022-10-21T04:12:29.332Z,12.80
2022-10-21T04:13:31.361Z,13.40
2022-10-21T04:14:32.668Z,13.47
2022-10-21T04:15:33.968Z,12.67
2022-10-21T04:16:35.482Z,13.23
2022-10-21T04:17:37.341Z,13.47
2022-10-21T04:18:38.608Z,12.60
2022-10-21T04:19:39.940Z,13.07
2022-10-21T04:20:41.375Z,12.87
2022-10-21T04:21:42.670Z,12.47
2022-10-21T04:22:44.055Z,13.33
2022-10-21T04:23:45.363Z,12.40
2022-10-21T04:24:46.689Z,14.33
2022-10-21T04:25:48.050Z,13.10
2022-10-21T04:26:49.343Z,13.33
2022-10-21T04:27:50.700Z,13.27
2022-10-21T04:28:51.973Z,13.70
2022-10-21T04:29:53.269Z,13.53
2022-10-21T04:30:54.662Z,14.10
2022-10-21T04:33:02.243Z,13.10
2022-10-21T04:34:03.574Z,14.10
2022-10-21T04:35:05.087Z,13.23
2022-10-21T04:36:06.614Z,12.80
2022-10-21T04:37:08.010Z,14.07
2022-10-21T04:38:09.300Z,13.43
2022-10-21T04:39:10.666Z,13.87
2022-10-21T04:40:12.056Z,14.00
2022-10-21T04:41:13.347Z,13.77
2022-10-21T04:42:14.690Z,13.33
2022-10-21T04:43:15.998Z,13.50
2022-10-21T04:44:17.319Z,13.27
2022-10-21T04:45:18.601Z,13.73
2022-10-21T04:46:20.829Z,13.77
2022-10-21T04:47:22.111Z,13.07
2022-10-21T04:48:23.474Z,13.50
2022-10-21T04:49:24.949Z,14.17
2022-10-21T04:50:26.284Z,13.80
2022-10-21T04:51:27.807Z,12.83
2022-10-21T04:52:29.208Z,13.23
2022-10-21T04:53:30.493Z,13.77
2022-10-21T04:54:31.821Z,13.00
2022-10-21T04:55:33.180Z,13.67
2022-10-21T04:56:34.457Z,13.50
2022-10-21T04:57:35.789Z,12.93
2022-10-21T04:58:37.561Z,12.80
2022-10-21T04:59:38.898Z,12.63
2022-10-21T05:00:40.257Z,13.03
2022-10-21T05:01:41.684Z,13.57
2022-10-21T05:02:43.142Z,13.83
2022-10-21T05:03:44.498Z,13.10
2022-10-21T05:04:45.813Z,13.93
2022-10-21T05:05:50.911Z,13.53
2022-10-21T05:06:52.268Z,14.00
2022-10-21T05:07:53.577Z,14.23
2022-10-21T05:08:54.979Z,13.77
2022-10-21T05:09:56.347Z,12.90
2022-10-21T05:10:59.171Z,13.50
2022-10-21T05:12:00.569Z,13.13
2022-10-21T05:13:02.000Z,13.53
2022-10-21T05:14:03.396Z,14.17
2022-10-21T05:15:04.989Z,13.27
2022-10-21T05:16:06.533Z,13.23
2022-10-21T05:17:07.853Z,13.13
2022-10-21T05:18:09.190Z,12.73
2022-10-21T05:19:11.417Z,13.40
2022-10-21T05:20:12.776Z,12.83
2022-10-21T05:21:14.056Z,12.53
2022-10-21T05:22:15.364Z,12.70
2022-10-21T05:23:16.665Z,12.83
2022-10-21T05:24:18.338Z,12.97
2022-10-21T05:25:20.280Z,13.23
2022-10-21T05:26:21.549Z,12.63
2022-10-21T05:27:22.854Z,12.43
2022-10-21T05:28:24.225Z,12.33
2022-10-21T05:29:25.537Z,13.13
2022-10-21T05:30:27.013Z,12.43
2022-10-21T05:31:28.514Z,12.27
2022-10-21T05:32:29.837Z,12.17
2022-10-21T05:33:31.162Z,12.73
2022-10-21T05:34:32.529Z,12.83
2022-10-21T05:35:33.868Z,12.40
2022-10-21T05:36:35.253Z,12.80
2022-10-21T05:37:36.605Z,12.80
2022-10-21T05:38:37.941Z,11.73
2022-10-21T05:39:39.226Z,11.63
2022-10-21T05:40:40.556Z,13.03
2022-10-21T05:41:44.176Z,13.27
2022-10-21T05:42:49.174Z,13.00
2022-10-21T05:43:50.468Z,13.07
2022-10-21T05:44:51.787Z,12.00
2022-10-21T05:45:53.156Z,12.20
2022-10-21T05:46:54.453Z,12.10
2022-10-21T05:47:55.811Z,13.17
2022-10-21T05:48:57.191Z,12.40
2022-10-21T05:49:58.598Z,12.50
2022-10-21T05:50:59.937Z,12.40
2022-10-21T05:52:02.351Z,12.03
2022-10-21T05:53:03.640Z,12.23
2022-10-21T05:54:05.421Z,11.80
2022-10-21T05:55:07.489Z,12.23
2022-10-21T05:56:08.907Z,11.53
2022-10-21T05:57:10.445Z,12.57
2022-10-21T05:58:11.805Z,11.57
2022-10-21T05:59:13.115Z,11.40
2022-10-21T06:00:14.592Z,12.07
2022-10-21T06:01:16.005Z,12.50
2022-10-21T06:02:17.457Z,12.17
2022-10-21T06:03:18.856Z,12.30
2022-10-21T06:04:20.237Z,11.13
2022-10-21T06:05:21.640Z,11.87
2022-10-21T06:06:22.938Z,11.67
2022-10-21T06:07:24.265Z,11.47
2022-10-21T06:08:26.013Z,12.23
2022-10-21T06:09:27.334Z,12.20
2022-10-21T06:10:29.267Z,11.60
2022-10-21T06:11:30.758Z,11.33
2022-10-21T06:12:32.036Z,14.43
2022-10-21T06:13:33.692Z,12.83
2022-10-21T06:14:36.269Z,12.37
2022-10-21T06:15:37.655Z,11.17
2022-10-21T06:16:38.972Z,10.80
2022-10-21T06:17:40.646Z,10.07
2022-10-21T06:18:43.556Z,10.73
2022-10-21T06:19:47.463Z,10.57
2022-10-21T06:20:51.563Z,10.60
2022-10-21T06:21:54.218Z,11.50
2022-10-21T06:22:55.609Z,11.50
2022-10-21T06:23:57.021Z,10.90
2022-10-21T06:24:58.419Z,11.00
2022-10-21T06:25:59.720Z,10.33
2022-10-21T06:27:01.051Z,10.43
2022-10-21T06:28:02.452Z,11.13
2022-10-21T06:29:03.913Z,10.57
2022-10-21T06:30:05.458Z,10.83
2022-10-21T06:31:07.795Z,10.93
2022-10-21T06:32:09.361Z,10.73
2022-10-21T06:33:10.666Z,11.30
2022-10-21T06:34:12.038Z,10.87
2022-10-21T06:35:13.437Z,10.37
2022-10-21T06:36:15.117Z,9.90
2022-10-21T06:37:16.431Z,11.10
2022-10-21T06:38:18.669Z,10.33
2022-10-21T06:39:20.031Z,9.83
2022-10-21T06:40:21.385Z,10.87
2022-10-21T06:41:22.749Z,11.20
2022-10-21T06:42:24.124Z,11.17
2022-10-21T06:43:26.144Z,10.47
2022-10-21T06:44:27.460Z,11.13
2022-10-21T06:45:28.764Z,10.00
2022-10-21T06:46:31.246Z,11.17
2022-10-21T06:47:32.689Z,14.50
2022-10-21T06:48:34.300Z,11.17
2022-10-21T06:49:35.650Z,11.13
2022-10-21T06:50:37.678Z,10.47
2022-10-21T06:51:39.016Z,9.43
2022-10-21T06:52:40.850Z,10.40
2022-10-21T06:53:42.791Z,10.07
2022-10-21T06:54:44.192Z,9.37
2022-10-21T06:55:45.512Z,10.50
2022-10-21T06:56:47.231Z,9.97
2022-10-21T06:57:48.553Z,9.30
2022-10-21T06:58:50.389Z,11.30
2022-10-21T06:59:51.750Z,9.97
2022-10-21T07:00:53.217Z,11.20
2022-10-21T07:02:00.092Z,10.50
2022-10-21T07:03:02.204Z,10.00
2022-10-21T07:04:04.473Z,10.10
2022-10-21T07:05:06.062Z,10.13
2022-10-21T07:06:07.475Z,10.67
2022-10-21T07:07:08.935Z,10.53
2022-10-21T07:08:12.106Z,10.80
2022-10-21T07:09:14.485Z,10.53
2022-10-21T07:10:15.996Z,10.87
2022-10-21T07:11:17.556Z,11.37
2022-10-21T07:12:19.417Z,10.90
2022-10-21T07:13:25.509Z,10.70
2022-10-21T07:14:27.366Z,11.30
2022-10-21T07:15:28.716Z,10.17
2022-10-21T07:16:33.041Z,10.73
2022-10-21T07:17:34.509Z,11.13
2022-10-21T07:18:39.179Z,10.13
2022-10-21T07:19:41.974Z,11.07
2022-10-21T07:20:43.347Z,11.10
2022-10-21T07:21:45.006Z,11.80
2022-10-21T07:22:46.320Z,12.57
2022-10-21T07:23:49.163Z,11.77
2022-10-21T07:24:51.584Z,11.53
2022-10-21T07:25:53.216Z,11.00
2022-10-21T07:26:54.885Z,11.33
2022-10-21T07:27:56.272Z,11.50
2022-10-21T07:28:58.847Z,12.20
2022-10-21T07:30:00.598Z,11.80
2022-10-21T07:31:03.679Z,11.37
2022-10-21T07:32:05.219Z,11.80
2022-10-21T07:33:15.192Z,11.73
2022-10-21T07:34:22.829Z,11.60
2022-10-21T07:35:27.041Z,11.57
2022-10-21T07:36:29.666Z,12.13
2022-10-21T07:37:30.998Z,12.00
2022-10-21T07:38:32.606Z,11.77
2022-10-21T07:39:37.058Z,11.43
2022-10-21T07:40:39.340Z,10.97
2022-10-21T07:41:44.908Z,11.53
2022-10-21T07:42:46.237Z,11.40
2022-10-21T07:43:47.934Z,11.40
2022-10-21T07:44:50.010Z,11.47
2022-10-21T07:45:51.319Z,10.97
2022-10-21T07:46:52.884Z,11.07
2022-10-21T07:47:54.293Z,10.93
2022-10-21T07:48:56.354Z,11.33
2022-10-21T07:50:03.801Z,11.37
2022-10-21T07:51:06.376Z,12.13
2022-10-21T07:52:10.413Z,11.30
2022-10-21T07:53:12.948Z,12.70
2022-10-21T07:54:14.752Z,11.63
2022-10-21T07:55:17.173Z,11.67
2022-10-21T07:56:20.074Z,10.37
2022-10-21T07:57:21.417Z,11.07
2022-10-21T07:58:22.722Z,10.77
2022-10-21T07:59:24.073Z,10.60
2022-10-21T08:00:25.376Z,10.27
2022-10-21T08:01:27.178Z,10.43
2022-10-21T08:02:28.574Z,10.40
2022-10-21T08:03:29.985Z,10.60
2022-10-21T08:04:33.220Z,10.70
2022-10-21T08:05:34.520Z,11.07
2022-10-21T08:06:35.896Z,10.93
2022-10-21T08:07:37.253Z,10.83
2022-10-21T08:08:39.121Z,10.93
2022-10-21T08:09:40.437Z,10.67
2022-10-21T08:10:41.775Z,10.67
2022-10-21T08:11:43.421Z,10.57
2022-10-21T08:12:44.762Z,10.97
2022-10-21T08:13:46.096Z,11.27
2022-10-21T08:14:47.397Z,11.47
2022-10-21T08:15:53.204Z,11.17
2022-10-21T08:16:55.028Z,11.00
2022-10-21T08:17:56.343Z,11.03
2022-10-21T08:18:59.368Z,10.87
2022-10-21T08:20:00.749Z,11.13
2022-10-21T08:21:02.660Z,11.63
2022-10-21T08:22:04.224Z,10.80
2022-10-21T08:23:05.715Z,11.13
2022-10-21T08:24:07.096Z,11.30
2022-10-21T08:25:08.505Z,10.83
2022-10-21T08:26:11.533Z,11.23
2022-10-21T08:27:12.956Z,10.60
2022-10-21T08:28:14.383Z,11.10
2022-10-21T08:29:15.940Z,10.83
2022-10-21T08:30:17.333Z,10.97
2022-10-21T08:31:20.432Z,10.50
2022-10-21T08:32:21.764Z,10.70
2022-10-21T08:33:23.088Z,10.20
2022-10-21T08:34:24.409Z,10.80
2022-10-21T08:35:26.570Z,10.30
2022-10-21T08:36:27.895Z,10.70
2022-10-21T08:37:29.193Z,10.83
2022-10-21T08:38:30.551Z,11.07
2022-10-21T08:39:31.849Z,11.13
2022-10-21T08:40:41.295Z,10.93
2022-10-21T08:41:42.591Z,10.23
2022-10-21T08:42:45.635Z,10.90
2022-10-21T08:43:47.358Z,11.00
2022-10-21T08:44:57.875Z,10.30
2022-10-21T08:46:19.474Z,10.67
2022-10-21T08:47:24.840Z,10.30
2022-10-21T08:48:31.434Z,10.90
2022-10-21T08:49:42.512Z,11.00
2022-10-21T08:50:46.562Z,10.50
2022-10-21T08:51:51.294Z,11.70
2022-10-21T08:53:06.883Z,10.97
2022-10-21T08:54:26.837Z,11.03
2022-10-21T08:55:35.920Z,10.30
2022-10-21T08:56:37.202Z,11.07
2022-10-21T08:57:38.848Z,10.70
2022-10-21T08:58:40.702Z,11.03
2022-10-21T08:59:42.698Z,10.67
2022-10-21T09:00:43.991Z,11.57
2022-10-21T09:01:59.328Z,10.73
2022-10-21T09:03:00.837Z,11.07
2022-10-21T09:04:18.603Z,10.30
2022-10-21T09:05:33.727Z,10.43
2022-10-21T09:06:40.995Z,10.03
2022-10-21T09:07:58.239Z,9.97
2022-10-21T09:09:00.001Z,10.50
2022-10-21T09:10:05.273Z,11.50
2022-10-21T09:11:14.135Z,12.03
2022-10-21T09:12:30.171Z,9.17
2022-10-21T09:13:51.417Z,9.53
2022-10-21T09:15:11.895Z,10.03
2022-10-21T09:16:20.041Z,10.50
2022-10-21T09:17:21.379Z,10.60
2022-10-21T09:18:33.958Z,10.10
2022-10-21T09:19:47.459Z,10.40
2022-10-21T09:21:01.798Z,11.00
2022-10-21T09:22:40.275Z,10.73
2022-10-21T09:23:52.786Z,10.30
2022-10-21T09:25:03.500Z,10.53
2022-10-21T09:26:16.397Z,10.27
2022-10-21T09:27:22.756Z,10.70
2022-10-21T09:28:33.807Z,10.70
2022-10-21T09:29:41.818Z,11.23
2022-10-21T09:30:46.311Z,10.47
2022-10-21T09:31:54.339Z,10.63
2022-10-21T09:32:59.218Z,10.27
2022-10-21T09:34:02.841Z,9.97
2022-10-21T09:35:16.762Z,12.37
2022-10-21T09:36:27.176Z,12.53
2022-10-21T09:37:35.815Z,12.27
2022-10-21T09:38:38.664Z,9.80
2022-10-21T09:39:42.572Z,9.43
2022-10-21T09:40:44.750Z,9.63
2022-10-21T09:41:49.595Z,9.67
2022-10-21T09:42:52.513Z,9.80
2022-10-21T09:43:56.070Z,8.97
2022-10-21T09:44:57.463Z,9.40
2022-10-21T09:45:58.901Z,9.57
2022-10-21T09:47:00.480Z,9.50
2022-10-21T09:48:07.370Z,9.10
2022-10-21T09:49:53.978Z,8.33
2022-10-21T09:50:38.506Z,9.13
2022-10-21T09:51:42.592Z,9.17
2022-10-21T09:52:47.299Z,8.60
2022-10-21T09:53:54.484Z,8.90
2022-10-21T09:54:56.817Z,7.53
2022-10-21T09:56:03.926Z,7.90
2022-10-21T09:57:08.191Z,7.63
2022-10-21T09:58:23.048Z,7.47
2022-10-21T09:59:30.342Z,6.80
2022-10-21T10:00:59.560Z,7.40
2022-10-21T10:02:06.961Z,8.80
2022-10-21T10:03:09.143Z,9.30
2022-10-21T10:04:22.383Z,6.87
2022-10-21T10:05:33.443Z,6.70
2022-10-21T10:06:34.895Z,7.30
2022-10-21T10:07:36.585Z,6.43
2022-10-21T10:08:42.329Z,6.20
2022-10-21T10:09:45.660Z,6.53
2022-10-21T10:10:47.423Z,6.83
2022-10-21T10:12:11.946Z,6.47
2022-10-21T10:13:17.748Z,6.27
2022-10-21T10:14:27.348Z,6.97
2022-10-21T10:15:36.283Z,6.13
2022-10-21T10:16:37.978Z,5.73
2022-10-21T10:17:39.962Z,5.90
2022-10-21T10:18:42.013Z,5.83
2022-10-21T10:19:43.382Z,5.97
2022-10-21T10:20:44.773Z,5.53
2022-10-21T10:21:48.171Z,6.07
2022-10-21T10:22:58.859Z,5.70
2022-10-21T10:24:01.279Z,6.00
2022-10-21T10:25:08.598Z,5.40
2022-10-21T10:26:10.615Z,5.10
2022-10-21T10:27:19.597Z,5.67
2022-10-21T10:28:24.146Z,4.90
2022-10-21T10:29:26.842Z,5.43
2022-10-21T10:30:36.223Z,5.67
2022-10-21T10:31:37.977Z,5.13
2022-10-21T10:32:39.969Z,5.53
2022-10-21T10:33:53.341Z,5.37
2022-10-21T10:34:58.438Z,5.70
2022-10-21T10:36:00.820Z,5.40
2022-10-21T10:37:15.938Z,5.23
2022-10-21T10:38:23.509Z,5.20
2022-10-21T10:39:28.480Z,5.90
2022-10-21T10:40:38.206Z,6.50
2022-10-21T10:41:41.205Z,5.53
2022-10-21T10:42:44.883Z,5.13
2022-10-21T10:43:47.883Z,4.77
2022-10-21T10:44:52.063Z,4.97
2022-10-21T10:45:53.485Z,5.43
2022-10-21T10:46:59.274Z,4.97
2022-10-21T10:48:03.998Z,4.57
2022-10-21T10:49:14.548Z,5.87
2022-10-21T10:50:34.888Z,5.40
2022-10-21T10:51:36.307Z,5.43
2022-10-21T10:52:38.043Z,4.83
2022-10-21T10:53:39.522Z,5.10
2022-10-21T10:54:42.327Z,5.10
2022-10-21T10:55:45.219Z,4.80
2022-10-21T10:56:46.847Z,6.03
2022-10-21T10:58:06.164Z,4.80
2022-10-21T10:59:15.432Z,3.97
2022-10-21T11:00:18.975Z,3.53
2022-10-21T11:01:27.108Z,2.90
2022-10-21T11:02:48.204Z,3.20
2022-10-21T11:03:55.640Z,3.40
2022-10-21T11:05:23.598Z,3.17
2022-10-21T11:06:33.964Z,3.70
2022-10-21T11:07:38.102Z,3.30
2022-10-21T11:08:43.104Z,3.00
2022-10-21T11:09:44.944Z,2.87
2022-10-21T11:10:47.735Z,3.03
2022-10-21T11:11:53.871Z,3.23
2022-10-21T11:12:55.395Z,3.03
2022-10-21T11:13:57.463Z,3.50
2022-10-21T11:14:59.660Z,2.70
2022-10-21T11:16:20.329Z,2.60
2022-10-21T11:17:26.429Z,2.80
2022-10-21T11:18:40.366Z,2.40
2022-10-21T11:19:50.624Z,2.60
2022-10-21T11:20:58.243Z,2.37
2022-10-21T11:22:13.748Z,2.43
2022-10-21T11:23:18.200Z,2.87
2022-10-21T11:24:27.489Z,2.97
2022-10-21T11:25:28.935Z,2.70
2022-10-21T11:26:45.795Z,3.10
2022-10-21T11:27:56.779Z,2.80
2022-10-21T11:29:04.727Z,3.20
2022-10-21T11:30:12.814Z,3.23
2022-10-21T11:31:17.290Z,3.50
2022-10-21T11:32:41.976Z,4.37
2022-10-21T11:33:48.318Z,3.60
2022-10-21T11:34:58.980Z,3.13
2022-10-21T11:36:20.324Z,3.47
2022-10-21T11:37:29.338Z,3.23
2022-10-21T11:38:45.085Z,3.00
2022-10-21T11:39:54.498Z,2.73
2022-10-21T11:40:55.815Z,3.40
2022-10-21T11:42:06.515Z,3.00
2022-10-21T11:43:19.899Z,3.23
2022-10-21T11:44:40.182Z,3.37
2022-10-21T11:45:49.452Z,4.23
2022-10-21T11:46:53.978Z,3.97
2022-10-21T11:47:58.814Z,6.03
2022-10-21T11:49:03.349Z,6.00
2022-10-21T11:51:34.555Z,3.50
2022-10-21T11:52:42.280Z,2.97
2022-10-21T11:53:49.832Z,3.33
2022-10-21T11:55:09.866Z,3.03
2022-10-21T11:56:50.755Z,3.40
2022-10-21T11:57:52.108Z,3.50
2022-10-21T11:58:53.544Z,3.67
2022-10-21T12:00:13.496Z,3.60
2022-10-21T12:01:29.978Z,3.50
2022-10-21T12:02:40.880Z,2.97
2022-10-21T12:03:45.368Z,3.57
2022-10-21T12:04:50.423Z,2.80
2022-10-21T12:06:02.235Z,2.87
2022-10-21T12:07:11.237Z,3.97
2022-10-21T12:08:27.631Z,3.13
2022-10-21T12:09:31.523Z,2.83
2022-10-21T12:10:51.534Z,2.77
2022-10-21T12:11:57.236Z,2.77
2022-10-21T12:13:01.623Z,2.40
2022-10-21T12:14:26.566Z,2.40
2022-10-21T12:15:39.339Z,2.23
2022-10-21T12:16:41.663Z,1.93
2022-10-21T12:17:45.267Z,2.50
2022-10-21T12:18:59.438Z,2.83
2022-10-21T12:20:07.197Z,2.63
2022-10-21T12:21:14.778Z,2.63
2022-10-21T12:22:16.601Z,2.97
2022-10-21T12:23:20.300Z,3.00
2022-10-21T12:24:28.234Z,2.33
2022-10-21T12:25:29.810Z,3.00
2022-10-21T12:26:31.362Z,3.47
2022-10-21T12:27:42.498Z,3.00
2022-10-21T12:28:56.526Z,3.30
2022-10-21T12:30:08.993Z,3.07
2022-10-21T12:31:19.648Z,3.03
2022-10-21T12:32:25.588Z,3.30
2022-10-21T12:33:27.504Z,3.90
2022-10-21T12:34:29.420Z,3.50
2022-10-21T12:36:00.447Z,3.00
2022-10-21T12:37:02.169Z,4.13
2022-10-21T12:38:05.658Z,3.63
2022-10-21T12:39:16.497Z,3.93
2022-10-21T12:40:38.451Z,4.10
2022-10-21T12:41:40.516Z,3.83
2022-10-21T12:42:44.864Z,3.93
2022-10-21T12:43:53.770Z,3.53
2022-10-21T12:44:55.348Z,3.57
2022-10-21T12:46:22.775Z,3.60
2022-10-21T12:47:34.845Z,3.00
2022-10-21T12:48:43.539Z,2.90
2022-10-21T12:49:45.882Z,3.40
2022-10-21T12:50:58.488Z,3.07
2022-10-21T12:52:03.115Z,2.87
2022-10-21T12:53:11.298Z,2.40
2022-10-21T12:54:14.955Z,3.10
2022-10-21T12:55:19.391Z,2.57
2022-10-21T12:56:29.239Z,2.40
2022-10-21T12:57:35.056Z,2.50
2022-10-21T12:58:41.580Z,2.90
2022-10-21T12:59:43.226Z,3.10
2022-10-21T13:00:44.751Z,2.67
2022-10-21T13:02:06.781Z,2.77
2022-10-21T13:03:09.966Z,2.60
2022-10-21T13:04:30.369Z,2.70
2022-10-21T13:05:37.693Z,2.57
2022-10-21T13:06:53.195Z,2.77
2022-10-21T13:08:14.731Z,2.90
2022-10-21T13:09:35.161Z,2.53
2022-10-21T13:10:36.745Z,2.90
2022-10-21T13:11:39.326Z,3.20
2022-10-21T13:12:41.013Z,2.60
2022-10-21T13:13:47.095Z,2.67
2022-10-21T13:14:48.621Z,2.40
2022-10-21T13:15:50.181Z,2.40
2022-10-21T13:16:51.760Z,2.60
2022-10-21T13:17:57.579Z,2.10
2022-10-21T13:19:25.331Z,2.30
2022-10-21T13:20:26.705Z,2.50
2022-10-21T13:21:43.169Z,2.40
2022-10-21T13:22:45.728Z,2.23
2022-10-21T13:23:49.168Z,2.10
2022-10-21T13:24:50.572Z,2.47
2022-10-21T13:26:06.595Z,2.43
2022-10-21T13:27:30.236Z,2.23
2022-10-21T13:28:37.701Z,2.40
2022-10-21T13:29:47.103Z,1.90
2022-10-21T13:30:48.388Z,2.63
2022-10-21T13:32:09.653Z,3.03
2022-10-21T13:33:19.234Z,2.70
2022-10-21T13:34:25.953Z,3.23
2022-10-21T13:35:29.999Z,2.10
2022-10-21T13:37:50.252Z,2.60
2022-10-21T13:38:52.731Z,2.40
2022-10-21T13:39:58.569Z,2.47
2022-10-21T13:41:01.961Z,2.10
2022-10-21T13:42:05.059Z,2.30
2022-10-21T13:43:11.475Z,2.53
2022-10-21T13:44:28.944Z,1.73
2022-10-21T13:45:32.928Z,2.00
2022-10-21T13:46:36.764Z,2.00
2022-10-21T13:47:40.914Z,1.90
2022-10-21T13:48:44.304Z,1.83
2022-10-21T13:49:53.245Z,2.03
2022-10-21T13:50:54.613Z,1.80
2022-10-21T13:51:56.176Z,1.80
2022-10-21T13:52:58.266Z,1.80
2022-10-21T13:54:03.459Z,1.90
2022-10-21T13:55:06.373Z,1.80
2022-10-21T13:56:08.617Z,1.60
2022-10-21T13:57:11.264Z,1.70
2022-10-21T13:58:15.569Z,2.10
2022-10-21T13:59:22.942Z,2.00
2022-10-21T14:00:26.399Z,2.37
2022-10-21T14:01:43.376Z,2.17
2022-10-21T14:02:52.233Z,1.70
2022-10-21T14:03:56.699Z,2.27
2022-10-21T14:05:05.069Z,2.10
2022-10-21T14:06:08.603Z,1.93
2022-10-21T14:07:15.804Z,2.10
2022-10-21T14:08:21.972Z,1.97